Terminal Aerodrome Forecast
Issued by NWS Twin Cities, MN

Home | Current Version | Previous Version | Text Only | Print | Product List | Glossary On
Versions: 1 2 3 4 5 6 7 8 9 10 11 12 13 14 15 16 17 18
741
FTUS43 KMPX 290652 AAA
TAFEAU
TAF AMD
KEAU 290652Z 2907/3006 VRB04KT P6SM VCSH BKN014 OVC060
     FM290800 29004KT 6SM BR VCSH OVC012
     FM291000 29004KT 5SM BR OVC009
     FM291500 28009G15KT P6SM VCSH BKN035 OVC050
     FM292200 27008KT P6SM SCT050 BKN200=

USA.gov is the U.S. government's official web portal to all federal, state and local government web resources and services.